Bear Garden, Mississippi
Current Conditions -  °F | °C
As of 6:53 PM on Monday 26 Jan 2015 (Local Time) from KGLH Reporting Station
Clear Clear  
Wind Chill: 41°   Ceiling: Unl
Heat Index: 45°   Visibility: 9mi
Dew Point: 35°   Wind: 8mph
Humidity: 68%   Direction: 230°SW
Pressure: 30.01"   Gusts: NA
Location:  33.1785°N, 90.8086°W
Report Text: KGLH 270053Z AUTO 23007KT 9SM CLR 07/02 A3001 RMK AO2 SLP171 T00720017
Loading
Personal Weather Stations






























Interactive Weather Map New forecast layout! Learn more

10-Day Weather Forecast

Advertisements
Track Severe Weather on mobile